createdAt,value
2023-01-29T00:00:21.001Z,-0.10
2023-01-29T00:01:21.520Z,-0.10
2023-01-29T00:02:22.105Z,-0.10
2023-01-29T00:03:22.371Z,-0.10
2023-01-29T00:04:23.044Z,-0.10
2023-01-29T00:05:28.377Z,-0.10
2023-01-29T00:06:23.914Z,-0.10
2023-01-29T00:07:24.705Z,-0.10
2023-01-29T00:08:25.124Z,-0.10
2023-01-29T00:09:25.991Z,-0.09
2023-01-29T00:10:26.522Z,-0.09
2023-01-29T00:11:26.792Z,-0.09
2023-01-29T00:12:27.204Z,-0.08
2023-01-29T00:13:27.368Z,-0.07
2023-01-29T00:14:28.020Z,-0.06
2023-01-29T00:15:28.114Z,-0.06
2023-01-29T00:16:28.540Z,-0.06
2023-01-29T00:17:28.832Z,-0.06
2023-01-29T00:17:37.492Z,-0.06
2023-01-29T00:18:37.498Z,-0.07
2023-01-29T00:19:38.350Z,-0.07
2023-01-29T00:20:40.355Z,-0.07
2023-01-29T00:21:39.524Z,-0.06
2023-01-29T00:22:40.021Z,-0.06
2023-01-29T00:23:40.022Z,-0.06
2023-01-29T00:24:40.036Z,-0.06
2023-01-29T00:25:40.803Z,-0.05
2023-01-29T00:26:42.061Z,-0.05
2023-01-29T00:27:41.590Z,-0.05
2023-01-29T00:28:41.793Z,-0.04
2023-01-29T00:29:42.065Z,-0.04
2023-01-29T00:30:42.322Z,-0.03
2023-01-29T00:31:42.443Z,-0.02
2023-01-29T00:32:42.413Z,-0.02
2023-01-29T00:33:42.786Z,-0.02
2023-01-29T00:34:43.343Z,-0.01
2023-01-29T00:35:43.869Z,-0.01
2023-01-29T00:36:44.799Z,-0.01
2023-01-29T00:37:45.365Z,-0.01
2023-01-29T00:38:46.228Z,0.00
2023-01-29T00:39:48.343Z,0.00
2023-01-29T00:40:46.816Z,0.00
2023-01-29T00:41:47.221Z,0.00
2023-01-29T00:42:47.899Z,0.00
2023-01-29T00:43:48.094Z,0.00
2023-01-29T00:44:48.474Z,0.00
2023-01-29T00:45:49.762Z,-0.01
2023-01-29T00:46:48.979Z,-0.01
2023-01-29T00:47:49.042Z,-0.02
2023-01-29T00:48:49.707Z,-0.03
2023-01-29T00:49:49.675Z,-0.04
2023-01-29T00:49:58.281Z,-0.28
2023-01-29T00:50:58.546Z,-0.28
2023-01-29T00:51:59.315Z,-0.29
2023-01-29T00:52:59.843Z,-0.29
2023-01-29T00:54:00.790Z,-0.30
2023-01-29T00:55:01.333Z,-0.31
2023-01-29T00:56:01.934Z,-0.33
2023-01-29T00:57:02.744Z,-0.35
2023-01-29T00:58:03.287Z,-0.37
2023-01-29T00:59:04.565Z,-0.39
2023-01-29T01:00:03.547Z,-0.41
2023-01-29T01:01:04.178Z,-0.42
2023-01-29T01:02:04.311Z,-0.45
2023-01-29T01:03:04.706Z,-0.47
2023-01-29T01:04:05.471Z,-0.50
2023-01-29T01:05:06.398Z,-0.53
2023-01-29T01:06:07.052Z,-0.55
2023-01-29T01:07:07.471Z,-0.58
2023-01-29T01:08:07.500Z,-0.60
2023-01-29T01:09:08.327Z,-0.62
2023-01-29T01:10:08.762Z,-0.65
2023-01-29T01:11:08.851Z,-0.67
2023-01-29T01:12:09.867Z,-0.69
2023-01-29T01:13:11.485Z,-0.71
2023-01-29T01:14:11.240Z,-0.73
2023-01-29T01:15:11.857Z,-0.75
2023-01-29T01:16:12.608Z,-0.77
2023-01-29T01:17:12.946Z,-0.79
2023-01-29T01:18:13.376Z,-0.81
2023-01-29T01:19:13.524Z,-0.83
2023-01-29T01:20:14.211Z,-0.84
2023-01-29T01:21:14.735Z,-0.86
2023-01-29T01:21:23.390Z,-1.03
2023-01-29T01:22:23.656Z,-1.04
2023-01-29T01:23:24.106Z,-1.05
2023-01-29T01:24:24.444Z,-1.05
2023-01-29T01:25:24.838Z,-1.05
2023-01-29T01:26:25.323Z,-1.05
2023-01-29T01:27:25.611Z,-1.05
2023-01-29T01:28:25.993Z,-1.05
2023-01-29T01:29:26.402Z,-1.05
2023-01-29T01:30:27.306Z,-1.05
2023-01-29T01:31:28.094Z,-1.05
2023-01-29T01:32:28.020Z,-1.05
2023-01-29T01:33:28.329Z,-1.05
2023-01-29T01:34:28.318Z,-1.05
2023-01-29T01:35:28.795Z,-1.05
2023-01-29T01:36:29.565Z,-1.05
2023-01-29T01:37:29.628Z,-1.05
2023-01-29T01:38:30.313Z,-1.05
2023-01-29T01:39:31.162Z,-1.05
2023-01-29T01:40:31.927Z,-1.05
2023-01-29T01:41:32.133Z,-1.06
2023-01-29T01:42:32.627Z,-1.06
2023-01-29T01:43:32.968Z,-1.06
2023-01-29T01:44:32.986Z,-1.06
2023-01-29T01:45:34.005Z,-1.06
2023-01-29T01:46:34.141Z,-1.06
2023-01-29T01:47:34.666Z,-1.06
2023-01-29T01:48:35.239Z,-1.06
2023-01-29T01:49:35.230Z,-1.07
2023-01-29T01:50:35.662Z,-1.07
2023-01-29T01:51:35.675Z,-1.08
2023-01-29T01:52:36.652Z,-1.10
2023-01-29T01:52:45.321Z,-1.27
2023-01-29T01:53:45.730Z,-1.28
2023-01-29T01:54:46.642Z,-1.28
2023-01-29T01:55:47.176Z,-1.28
2023-01-29T01:56:47.792Z,-1.28
2023-01-29T01:57:48.459Z,-1.28
2023-01-29T01:58:49.029Z,-1.28
2023-01-29T01:59:49.596Z,-1.29
2023-01-29T02:00:50.122Z,-1.29
2023-01-29T02:01:51.025Z,-1.29
2023-01-29T02:02:52.060Z,-1.30
2023-01-29T02:03:52.326Z,-1.31
2023-01-29T02:04:52.976Z,-1.32
2023-01-29T02:05:54.644Z,-1.33
2023-01-29T02:06:54.567Z,-1.34
2023-01-29T02:07:55.496Z,-1.35
2023-01-29T02:08:55.779Z,-1.36
2023-01-29T02:09:56.667Z,-1.37
2023-01-29T02:10:57.285Z,-1.38
2023-01-29T02:11:57.989Z,-1.39
2023-01-29T02:12:58.717Z,-1.40
2023-01-29T02:13:59.001Z,-1.40
2023-01-29T02:14:59.147Z,-1.41
2023-01-29T02:15:59.548Z,-1.41
2023-01-29T02:16:59.821Z,-1.41
2023-01-29T02:17:59.885Z,-1.42
2023-01-29T02:19:00.132Z,-1.42
2023-01-29T02:20:00.322Z,-1.42
2023-01-29T02:21:00.429Z,-1.42
2023-01-29T02:22:00.728Z,-1.42
2023-01-29T02:23:02.702Z,-1.41
2023-01-29T02:24:02.396Z,-1.41
2023-01-29T02:24:11.551Z,-1.39
2023-01-29T02:25:12.348Z,-1.41
2023-01-29T02:26:13.411Z,-1.41
2023-01-29T02:27:14.263Z,-1.40
2023-01-29T02:28:15.086Z,-1.40
2023-01-29T02:29:15.898Z,-1.39
2023-01-29T02:30:16.905Z,-1.39
2023-01-29T02:31:16.847Z,-1.38
2023-01-29T02:32:17.593Z,-1.37
2023-01-29T02:33:18.249Z,-1.37
2023-01-29T02:34:18.590Z,-1.36
2023-01-29T02:35:18.717Z,-1.35
2023-01-29T02:36:19.304Z,-1.35
2023-01-29T02:37:20.576Z,-1.34
2023-01-29T02:38:20.138Z,-1.34
2023-01-29T02:39:21.141Z,-1.34
2023-01-29T02:40:21.682Z,-1.33
2023-01-29T02:41:22.361Z,-1.33
2023-01-29T02:42:23.305Z,-1.32
2023-01-29T02:43:23.748Z,-1.31
2023-01-29T02:44:24.363Z,-1.31
2023-01-29T02:45:25.572Z,-1.31
2023-01-29T02:46:25.205Z,-1.31
2023-01-29T02:47:25.516Z,-1.31
2023-01-29T02:48:26.038Z,-1.31
2023-01-29T02:49:26.938Z,-1.31
2023-01-29T02:50:27.592Z,-1.31
2023-01-29T02:51:28.283Z,-1.31
2023-01-29T02:52:29.128Z,-1.30
2023-01-29T02:53:29.706Z,-1.30
2023-01-29T02:53:38.357Z,-1.20
2023-01-29T02:54:39.094Z,-1.22
2023-01-29T02:55:39.813Z,-1.22
2023-01-29T02:56:41.692Z,-1.22
2023-01-29T02:57:41.417Z,-1.22
2023-01-29T02:58:42.415Z,-1.23
2023-01-29T02:59:43.073Z,-1.23
2023-01-29T03:00:43.889Z,-1.23
2023-01-29T03:01:44.350Z,-1.23
2023-01-29T03:02:44.916Z,-1.24
2023-01-29T03:03:45.882Z,-1.24
2023-01-29T03:04:46.590Z,-1.25
2023-01-29T03:05:47.376Z,-1.25
2023-01-29T03:06:47.961Z,-1.26
2023-01-29T03:07:48.714Z,-1.26
2023-01-29T03:08:49.270Z,-1.26
2023-01-29T03:09:49.963Z,-1.26
2023-01-29T03:10:50.465Z,-1.26
2023-01-29T03:11:51.246Z,-1.25
2023-01-29T03:12:51.658Z,-1.25
2023-01-29T03:13:52.670Z,-1.25
2023-01-29T03:14:53.589Z,-1.26
2023-01-29T03:15:54.200Z,-1.26
2023-01-29T03:16:54.876Z,-1.26
2023-01-29T03:17:55.836Z,-1.27
2023-01-29T03:18:57.789Z,-1.27
2023-01-29T03:19:57.680Z,-1.28
2023-01-29T03:20:58.390Z,-1.29
2023-01-29T03:21:59.275Z,-1.30
2023-01-29T03:22:59.826Z,-1.30
2023-01-29T03:23:08.489Z,-1.46
2023-01-29T03:24:09.162Z,-1.47
2023-01-29T03:25:09.839Z,-1.47
2023-01-29T03:26:11.514Z,-1.47
2023-01-29T03:27:11.355Z,-1.47
2023-01-29T03:28:11.364Z,-1.47
2023-01-29T03:29:12.141Z,-1.47
2023-01-29T03:30:13.059Z,-1.47
2023-01-29T03:31:13.488Z,-1.46
2023-01-29T03:32:14.079Z,-1.46
2023-01-29T03:33:14.804Z,-1.46
2023-01-29T03:34:15.534Z,-1.47
2023-01-29T03:35:16.271Z,-1.47
2023-01-29T03:36:16.833Z,-1.47
2023-01-29T03:37:17.568Z,-1.48
2023-01-29T03:38:18.342Z,-1.48
2023-01-29T03:39:18.600Z,-1.49
2023-01-29T03:40:19.000Z,-1.49
2023-01-29T03:41:19.637Z,-1.49
2023-01-29T03:42:20.163Z,-1.49
2023-01-29T03:43:20.990Z,-1.50
2023-01-29T03:44:22.243Z,-1.51
2023-01-29T03:45:23.079Z,-1.51
2023-01-29T03:46:22.775Z,-1.52
2023-01-29T03:47:23.651Z,-1.52
2023-01-29T03:48:24.123Z,-1.53
2023-01-29T03:49:24.870Z,-1.54
2023-01-29T03:50:25.756Z,-1.55
2023-01-29T03:51:26.349Z,-1.56
2023-01-29T03:52:26.927Z,-1.57
2023-01-29T03:53:27.024Z,-1.58
2023-01-29T03:53:36.167Z,-1.68
2023-01-29T03:54:36.682Z,-1.69
2023-01-29T03:55:37.524Z,-1.69
2023-01-29T03:56:38.406Z,-1.69
2023-01-29T03:57:39.182Z,-1.69
2023-01-29T03:58:39.747Z,-1.68
2023-01-29T03:59:39.904Z,-1.68
2023-01-29T04:00:40.140Z,-1.68
2023-01-29T04:01:40.871Z,-1.68
2023-01-29T04:02:41.730Z,-1.68
2023-01-29T04:03:42.328Z,-1.67
2023-01-29T04:04:42.972Z,-1.67
2023-01-29T04:05:43.990Z,-1.67
2023-01-29T04:06:43.969Z,-1.67
2023-01-29T04:07:44.257Z,-1.66
2023-01-29T04:08:45.137Z,-1.66
2023-01-29T04:09:45.954Z,-1.66
2023-01-29T04:10:46.152Z,-1.65
2023-01-29T04:11:46.738Z,-1.65
2023-01-29T04:12:47.672Z,-1.64
2023-01-29T04:13:47.864Z,-1.63
2023-01-29T04:14:48.057Z,-1.63
2023-01-29T04:15:49.798Z,-1.62
2023-01-29T04:16:49.488Z,-1.62
2023-01-29T04:17:50.027Z,-1.61
2023-01-29T04:18:50.473Z,-1.60
2023-01-29T04:19:51.201Z,-1.60
2023-01-29T04:20:52.222Z,-1.59
2023-01-29T04:21:53.110Z,-1.58
2023-01-29T04:22:53.600Z,-1.58
2023-01-29T04:23:53.892Z,-1.57
2023-01-29T04:24:54.465Z,-1.56
2023-01-29T04:25:55.462Z,-1.55
2023-01-29T04:26:56.303Z,-1.55
2023-01-29T04:27:04.900Z,-1.41
2023-01-29T04:28:05.904Z,-1.42
2023-01-29T04:29:05.914Z,-1.43
2023-01-29T04:30:06.388Z,-1.42
2023-01-29T04:31:07.411Z,-1.42
2023-01-29T04:32:07.855Z,-1.42
2023-01-29T04:33:08.525Z,-1.42
2023-01-29T04:34:09.325Z,-1.42
2023-01-29T04:35:10.028Z,-1.42
2023-01-29T04:36:10.388Z,-1.41
2023-01-29T04:37:11.316Z,-1.41
2023-01-29T04:38:12.954Z,-1.41
2023-01-29T04:39:12.524Z,-1.40
2023-01-29T04:40:13.438Z,-1.40
2023-01-29T04:41:14.080Z,-1.40
2023-01-29T04:42:14.865Z,-1.39
2023-01-29T04:43:15.398Z,-1.38
2023-01-29T04:44:16.284Z,-1.38
2023-01-29T04:45:17.198Z,-1.37
2023-01-29T04:46:17.939Z,-1.37
2023-01-29T04:47:18.839Z,-1.36
2023-01-29T04:48:19.379Z,-1.35
2023-01-29T04:49:20.345Z,-1.34
2023-01-29T04:50:21.337Z,-1.33
2023-01-29T04:51:21.581Z,-1.32
2023-01-29T04:52:22.339Z,-1.32
2023-01-29T04:53:22.981Z,-1.32
2023-01-29T04:54:23.052Z,-1.32
2023-01-29T04:55:23.532Z,-1.32
2023-01-29T04:56:23.558Z,-1.31
2023-01-29T04:57:24.488Z,-1.31
2023-01-29T04:58:24.462Z,-1.32
2023-01-29T04:59:25.459Z,-1.32
2023-01-29T04:59:34.093Z,-1.41
2023-01-29T05:00:34.229Z,-1.42
2023-01-29T05:01:34.980Z,-1.43
2023-01-29T05:02:35.516Z,-1.43
2023-01-29T05:03:35.623Z,-1.43
2023-01-29T05:04:39.114Z,-1.43
2023-01-29T05:05:36.645Z,-1.43
2023-01-29T05:06:36.729Z,-1.43
2023-01-29T05:07:36.887Z,-1.44
2023-01-29T05:08:36.927Z,-1.45
2023-01-29T05:09:37.520Z,-1.46
2023-01-29T05:10:37.702Z,-1.46
2023-01-29T05:11:38.222Z,-1.47
2023-01-29T05:12:38.829Z,-1.48
2023-01-29T05:13:39.703Z,-1.49
2023-01-29T05:14:39.856Z,-1.50
2023-01-29T05:15:39.910Z,-1.51
2023-01-29T05:16:40.814Z,-1.52
2023-01-29T05:17:41.672Z,-1.53
2023-01-29T05:18:42.243Z,-1.54
2023-01-29T05:19:42.830Z,-1.55
2023-01-29T05:20:43.448Z,-1.55
2023-01-29T05:21:44.092Z,-1.56
2023-01-29T05:22:44.693Z,-1.56
2023-01-29T05:23:44.860Z,-1.56
2023-01-29T05:24:45.581Z,-1.56
2023-01-29T05:25:46.302Z,-1.56
2023-01-29T05:26:47.265Z,-1.56
2023-01-29T05:27:48.313Z,-1.56
2023-01-29T05:28:48.140Z,-1.56
2023-01-29T05:29:48.799Z,-1.56
2023-01-29T05:30:48.925Z,-1.56
2023-01-29T05:31:49.726Z,-1.57
2023-01-29T05:32:50.446Z,-1.56
2023-01-29T05:33:01.135Z,-1.52
2023-01-29T05:34:00.814Z,-1.53
2023-01-29T05:35:01.316Z,-1.53
2023-01-29T05:36:02.275Z,-1.52
2023-01-29T05:37:02.955Z,-1.52
2023-01-29T05:38:03.032Z,-1.51
2023-01-29T05:39:03.730Z,-1.51
2023-01-29T05:40:04.476Z,-1.50
2023-01-29T05:41:04.575Z,-1.50
2023-01-29T05:42:04.802Z,-1.50
2023-01-29T05:43:05.400Z,-1.49
2023-01-29T05:44:05.849Z,-1.49
2023-01-29T05:45:05.992Z,-1.49
2023-01-29T05:46:06.553Z,-1.49
2023-01-29T05:47:06.760Z,-1.48
2023-01-29T05:48:07.268Z,-1.48
2023-01-29T05:49:07.696Z,-1.48
2023-01-29T05:50:07.780Z,-1.48
2023-01-29T05:51:08.301Z,-1.48
2023-01-29T05:52:09.140Z,-1.47
2023-01-29T05:53:09.162Z,-1.47
2023-01-29T05:54:09.852Z,-1.46
2023-01-29T05:55:10.294Z,-1.46
2023-01-29T05:56:10.962Z,-1.45
2023-01-29T05:57:11.731Z,-1.45
2023-01-29T05:58:12.294Z,-1.44
2023-01-29T05:59:12.359Z,-1.44
2023-01-29T06:00:13.384Z,-1.42
2023-01-29T06:01:13.917Z,-1.42
2023-01-29T06:02:14.472Z,-1.41
2023-01-29T06:03:15.091Z,-1.40
2023-01-29T06:04:15.526Z,-1.39
2023-01-29T06:05:15.548Z,-1.39
2023-01-29T06:05:24.161Z,-1.30
2023-01-29T06:06:25.069Z,-1.32
2023-01-29T06:07:25.944Z,-1.33
2023-01-29T06:08:26.759Z,-1.33
2023-01-29T06:09:27.682Z,-1.33
2023-01-29T06:10:28.160Z,-1.33
2023-01-29T06:11:28.740Z,-1.33
2023-01-29T06:12:28.750Z,-1.33
2023-01-29T06:13:29.649Z,-1.34
2023-01-29T06:14:30.424Z,-1.35
2023-01-29T06:15:31.269Z,-1.35
2023-01-29T06:16:31.437Z,-1.36
2023-01-29T06:17:32.275Z,-1.38
2023-01-29T06:18:33.164Z,-1.38
2023-01-29T06:19:34.115Z,-1.39
2023-01-29T06:20:34.694Z,-1.40
2023-01-29T06:21:35.281Z,-1.40
2023-01-29T06:22:35.819Z,-1.41
2023-01-29T06:23:36.645Z,-1.41
2023-01-29T06:24:37.154Z,-1.42
2023-01-29T06:25:38.933Z,-1.42
2023-01-29T06:26:38.853Z,-1.42
2023-01-29T06:27:39.365Z,-1.43
2023-01-29T06:28:40.115Z,-1.44
2023-01-29T06:29:40.624Z,-1.45
2023-01-29T06:30:41.573Z,-1.45
2023-01-29T06:31:42.578Z,-1.46
2023-01-29T06:32:43.238Z,-1.46
2023-01-29T06:33:43.342Z,-1.46
2023-01-29T06:34:44.015Z,-1.46
2023-01-29T06:35:44.660Z,-1.46
2023-01-29T06:36:45.283Z,-1.46
2023-01-29T06:36:54.395Z,-1.48
2023-01-29T06:37:55.204Z,-1.52
2023-01-29T06:38:56.248Z,-1.52
2023-01-29T06:39:56.974Z,-1.52
2023-01-29T06:40:57.484Z,-1.53
2023-01-29T06:41:58.403Z,-1.53
2023-01-29T06:42:58.583Z,-1.53
2023-01-29T06:43:59.330Z,-1.53
2023-01-29T06:44:59.903Z,-1.53
2023-01-29T06:46:00.562Z,-1.53
2023-01-29T06:47:01.320Z,-1.52
2023-01-29T06:48:01.791Z,-1.52
2023-01-29T06:49:02.237Z,-1.52
2023-01-29T06:50:03.039Z,-1.51
2023-01-29T06:51:03.247Z,-1.51
2023-01-29T06:52:03.741Z,-1.50
2023-01-29T06:53:04.525Z,-1.50
2023-01-29T06:54:04.672Z,-1.49
2023-01-29T06:55:04.981Z,-1.49
2023-01-29T06:56:04.985Z,-1.48
2023-01-29T06:57:05.829Z,-1.48
2023-01-29T06:58:05.888Z,-1.48
2023-01-29T06:59:06.807Z,-1.48
2023-01-29T07:00:07.420Z,-1.48
2023-01-29T07:01:07.795Z,-1.48
2023-01-29T07:02:07.874Z,-1.49
2023-01-29T07:03:08.121Z,-1.48
2023-01-29T07:04:08.894Z,-1.48
2023-01-29T07:05:09.428Z,-1.47
2023-01-29T07:06:10.220Z,-1.47
2023-01-29T07:07:11.007Z,-1.46
2023-01-29T07:08:11.448Z,-1.46
2023-01-29T07:08:23.075Z,-1.36
2023-01-29T07:09:23.368Z,-1.37
2023-01-29T07:10:24.631Z,-1.37
2023-01-29T07:11:23.955Z,-1.37
2023-01-29T07:12:24.922Z,-1.36
2023-01-29T07:13:26.812Z,-1.36
2023-01-29T07:14:26.727Z,-1.36
2023-01-29T07:15:27.656Z,-1.36
2023-01-29T07:16:29.079Z,-1.36
2023-01-29T07:17:29.556Z,-1.36
2023-01-29T07:18:30.392Z,-1.37
2023-01-29T07:19:30.714Z,-1.37
2023-01-29T07:20:31.121Z,-1.37
2023-01-29T07:21:32.136Z,-1.38
2023-01-29T07:22:32.903Z,-1.38
2023-01-29T07:23:33.105Z,-1.38
2023-01-29T07:24:33.384Z,-1.38
2023-01-29T07:25:34.144Z,-1.38
2023-01-29T07:26:35.053Z,-1.38
2023-01-29T07:27:35.300Z,-1.37
2023-01-29T07:28:36.294Z,-1.36
2023-01-29T07:29:36.821Z,-1.35
2023-01-29T07:30:37.550Z,-1.34
2023-01-29T07:31:38.694Z,-1.33
2023-01-29T07:32:39.148Z,-1.32
2023-01-29T07:33:39.729Z,-1.32
2023-01-29T07:34:40.512Z,-1.31
2023-01-29T07:35:41.073Z,-1.30
2023-01-29T07:36:41.322Z,-1.30
2023-01-29T07:37:42.121Z,-1.29
2023-01-29T07:38:42.149Z,-1.29
2023-01-29T07:39:42.855Z,-1.29
2023-01-29T07:40:43.540Z,-1.29
2023-01-29T07:40:52.174Z,-1.22
2023-01-29T07:41:53.144Z,-1.23
2023-01-29T07:42:54.086Z,-1.23
2023-01-29T07:43:54.798Z,-1.23
2023-01-29T07:44:55.740Z,-1.22
2023-01-29T07:45:56.644Z,-1.21
2023-01-29T07:46:57.221Z,-1.21
2023-01-29T07:47:57.739Z,-1.20
2023-01-29T07:48:58.068Z,-1.20
2023-01-29T07:49:58.047Z,-1.19
2023-01-29T07:50:59.074Z,-1.19
2023-01-29T07:51:59.130Z,-1.19
2023-01-29T07:52:59.168Z,-1.19
2023-01-29T07:53:59.258Z,-1.19
2023-01-29T07:54:59.476Z,-1.19
2023-01-29T07:56:00.386Z,-1.19
2023-01-29T07:57:01.181Z,-1.19
2023-01-29T07:58:01.948Z,-1.18
2023-01-29T07:59:02.749Z,-1.18
2023-01-29T08:00:03.476Z,-1.17
2023-01-29T08:01:04.263Z,-1.16
2023-01-29T08:02:05.191Z,-1.16
2023-01-29T08:03:05.990Z,-1.15
2023-01-29T08:04:06.813Z,-1.15
2023-01-29T08:05:06.950Z,-1.14
2023-01-29T08:06:07.019Z,-1.14
2023-01-29T08:07:07.648Z,-1.13
2023-01-29T08:08:08.156Z,-1.12
2023-01-29T08:09:08.420Z,-1.11
2023-01-29T08:10:08.618Z,-1.10
2023-01-29T08:11:08.666Z,-1.09
2023-01-29T08:12:09.567Z,-1.08
2023-01-29T08:12:18.196Z,-0.94
2023-01-29T08:13:18.896Z,-0.95
2023-01-29T08:14:19.893Z,-0.95
2023-01-29T08:15:20.747Z,-0.95
2023-01-29T08:16:21.272Z,-0.96
2023-01-29T08:17:21.198Z,-0.96
2023-01-29T08:18:21.445Z,-0.96
2023-01-29T08:19:21.571Z,-0.97
2023-01-29T08:20:21.773Z,-0.97
2023-01-29T08:21:21.896Z,-0.98
2023-01-29T08:22:22.728Z,-0.98
2023-01-29T08:23:23.302Z,-0.98
2023-01-29T08:24:28.256Z,-0.99
2023-01-29T08:25:24.360Z,-0.99
2023-01-29T08:26:25.634Z,-0.99
2023-01-29T08:27:25.203Z,-1.00
2023-01-29T08:28:25.199Z,-1.00
2023-01-29T08:29:28.366Z,-1.00
2023-01-29T08:30:29.510Z,-1.01
2023-01-29T08:31:27.367Z,-1.01
2023-01-29T08:32:28.114Z,-1.01
2023-01-29T08:33:38.949Z,-1.01
